NR40 weather

Als Airport
Bethel, North Carolina, United States

Public forecast

Using degrees Fahrenheit for public forecast. Weather courtesy of forecast.io.

Closest aviation weather report (METAR) to Als Airport

Closest report is Tarboro Edgecombe Airport, 10.7 nm (19.9 km) NW. Retrieved 2019/12/15 07:35 UTC (6 minutes ago):

KETC 150735Z AUTO 26004KT 10SM CLR 06/02 A2989 RMK AO2 PWINO T00590018

Closest aviation forecast (TAF) to Als Airport

Closest forecast is Pitt Greenville Airport, 11.1 nm (20.6 km) S. Retrieved 2019/12/15 06:22 UTC (1 hour ago):

TAF KPGV 150520Z 1506/1606 25007KT P6SM SKC AMD LTD TO CLD VIS AND WIND